Time;durP1;ratioP1;P1;durP2;ratioP2;P2;SDS_P1;SDS_P2;PMS_P1;PMS_P2;Temp;Humidity;BMP_temperature;BMP_pressure;BME280_temperature;BME280_humidity;BME280_pressure;Samples;Min_cycle;Max_cycle;Signal;HPM_P1;HPM_P2
2023/09/27 00:00:13;;;;;;;14.63;8.95;;;19.50;99.90;;;20.05;85.39;101830.22;5012263;28;20579;-75
2023/09/27 00:02:43;;;;;;;13.50;9.13;;;19.50;99.90;;;20.01;85.73;101833.91;5011584;28;20054;-76
2023/09/27 00:05:14;;;;;;;10.23;8.52;;;19.50;99.90;;;20.03;85.88;101834.75;5005608;28;20077;-76
2023/09/27 00:07:43;;;;;;;12.93;8.75;;;19.40;99.90;;;20.02;86.24;101838.34;5003011;28;20100;-76
2023/09/27 00:10:12;;;;;;;11.82;8.35;;;19.40;99.90;;;19.97;86.58;101829.53;5011969;28;20443;-76
2023/09/27 00:12:41;;;;;;;10.32;8.20;;;19.40;99.90;;;19.95;87.05;101831.38;5001639;28;20038;-75
2023/09/27 00:15:11;;;;;;;12.27;8.75;;;19.40;99.90;;;19.84;87.35;101811.97;5006147;28;20570;-76
2023/09/27 00:17:41;;;;;;;12.48;8.50;;;19.40;99.90;;;19.96;87.68;101840.31;5010109;28;20050;-76
2023/09/27 00:20:15;;;;;;;11.10;8.40;;;19.40;99.90;;;19.99;87.66;101842.91;5014975;28;20050;-75
2023/09/27 00:22:45;;;;;;;10.68;8.65;;;19.40;99.90;;;19.93;87.90;101854.72;5009131;28;20053;-76
2023/09/27 00:25:14;;;;;;;13.70;9.40;;;19.40;99.90;;;19.96;87.99;101835.81;5007515;28;20096;-75
2023/09/27 00:27:43;;;;;;;13.80;8.45;;;19.40;99.90;;;19.97;88.22;101832.22;5000341;28;20047;-76
2023/09/27 00:30:14;;;;;;;16.98;9.25;;;19.40;99.90;;;19.96;88.33;101833.13;5012016;28;20050;-76
2023/09/27 00:32:45;;;;;;;9.90;8.77;;;19.40;99.90;;;19.96;88.47;101851.94;5003623;28;20042;-75
2023/09/27 00:35:19;;;;;;;12.98;8.75;;;19.40;99.90;;;19.87;88.77;101843.25;5002364;28;20124;-76
2023/09/27 00:37:48;;;;;;;15.38;9.43;;;19.40;99.90;;;19.93;88.82;101833.22;5011050;28;20050;-76
2023/09/27 00:40:18;;;;;;;12.23;9.57;;;19.40;99.90;;;19.90;89.12;101825.25;5000129;28;20046;-75
2023/09/27 00:42:48;;;;;;;14.85;9.77;;;19.30;99.90;;;19.84;89.80;101828.09;5004989;28;20053;-75
2023/09/27 00:45:18;;;;;;;14.75;9.45;;;19.30;99.90;;;19.81;90.34;101822.81;5009852;28;20049;-76
2023/09/27 00:47:48;;;;;;;11.25;8.80;;;19.20;99.90;;;19.83;90.51;101820.97;4998508;28;20428;-76
2023/09/27 00:50:17;;;;;;;11.85;9.48;;;19.30;99.90;;;19.90;90.60;101819.88;5008463;28;20121;-76
2023/09/27 00:52:48;;;;;;;14.07;9.82;;;19.30;99.90;;;19.93;90.83;101810.84;5006502;28;20058;-75
2023/09/27 00:55:20;;;;;;;;;;;19.30;99.90;;;19.93;91.04;101811.75;5000079;28;20108;-75
2023/09/27 00:57:51;;;;;;;13.98;9.45;;;19.40;99.90;;;19.99;91.27;101826.81;4999233;28;19956;-76
2023/09/27 01:00:22;;;;;;;12.55;9.75;;;19.50;99.90;;;20.03;91.10;101829.38;5026796;28;20050;-76
2023/09/27 01:02:51;;;;;;;12.57;9.63;;;19.50;99.90;;;20.07;90.96;101841.81;5008068;28;20057;-76
2023/09/27 01:05:21;;;;;;;14.07;9.80;;;19.50;99.90;;;20.09;90.96;101829.16;5014152;28;20080;-76
2023/09/27 01:07:49;;;;;;;13.23;10.02;;;19.50;99.90;;;20.11;90.76;101826.47;5009642;28;20488;-76
2023/09/27 01:10:18;;;;;;;16.92;10.18;;;19.50;99.90;;;20.11;90.59;101834.53;5004472;28;20136;-76
2023/09/27 01:12:46;;;;;;;15.95;9.80;;;19.50;99.90;;;20.11;90.74;101832.69;5001032;28;20520;-76
2023/09/27 01:15:15;;;;;;;14.88;10.27;;;19.50;99.90;;;20.12;90.43;101850.59;5010883;28;20096;-76
2023/09/27 01:17:59;;;;;;;12.98;9.60;;;19.60;99.90;;;20.09;89.96;101844.44;4999103;28;20442;-76
2023/09/27 01:20:29;;;;;;;9.73;8.10;;;19.50;99.90;;;20.09;88.99;101833.69;5018229;28;20054;-76
2023/09/27 01:23:00;;;;;;;15.40;10.07;;;19.50;99.90;;;20.05;89.06;101832.00;5011082;28;20045;-76
2023/09/27 01:25:30;;;;;;;14.00;9.90;;;19.50;99.90;;;19.95;89.76;101828.69;4999538;28;20052;-74
2023/09/27 01:28:00;;;;;;;12.27;9.63;;;19.50;99.90;;;19.98;89.77;101830.41;5013374;28;20099;-74
2023/09/27 01:30:32;;;;;;;12.85;10.02;;;19.40;99.90;;;19.96;90.21;101833.13;5001647;28;20074;-76
2023/09/27 01:33:04;;;;;;;12.90;8.20;;;19.40;99.90;;;19.93;89.65;101833.22;5026045;28;20053;-76
2023/09/27 01:35:33;;;;;;;9.38;7.72;;;19.40;99.90;;;19.86;88.31;101841.50;5000484;28;20403;-76
2023/09/27 01:38:04;;;;;;;13.25;10.40;;;19.30;99.90;;;19.87;89.17;101846.81;5003245;28;20459;-76
2023/09/27 01:40:35;;;;;;;15.63;9.95;;;19.30;99.90;;;19.72;89.78;101834.66;5008493;28;20046;-76
2023/09/27 01:43:05;;;;;;;13.93;10.60;;;19.30;99.90;;;19.66;90.11;101823.22;4998014;28;20054;-76
2023/09/27 01:45:34;;;;;;;13.05;9.00;;;19.20;99.90;;;19.66;89.83;101826.81;5006574;28;20050;-76
2023/09/27 01:48:04;;;;;;;10.75;9.65;;;19.30;99.90;;;19.78;89.89;101858.69;5005781;28;20499;-76
2023/09/27 01:50:35;;;;;;;13.63;10.50;;;19.30;99.90;;;19.80;90.41;101869.41;4997409;28;20444;-75
2023/09/27 01:53:05;;;;;;;13.20;9.77;;;19.30;99.90;;;19.83;90.35;101855.88;5007885;28;20077;-76
2023/09/27 01:55:34;;;;;;;11.80;8.70;;;19.30;99.90;;;19.82;90.03;101862.19;5001908;28;20057;-75
2023/09/27 01:58:04;;;;;;;11.63;9.57;;;19.30;99.90;;;19.69;89.67;101855.34;5016058;28;20057;-76
2023/09/27 02:00:32;;;;;;;12.25;9.50;;;19.20;99.90;;;19.76;90.31;101857.84;5008554;28;20041;-75
2023/09/27 02:03:02;;;;;;;13.00;10.00;;;19.20;99.90;;;19.70;90.39;101862.50;4999138;28;20399;-76
2023/09/27 02:05:32;;;;;;;13.60;10.82;;;19.10;99.90;;;19.65;91.10;101859.03;5004306;28;20046;-76
2023/09/27 02:08:01;;;;;;;12.30;10.07;;;19.10;99.90;;;19.56;91.21;101851.22;5023121;28;20125;-76
2023/09/27 02:10:31;;;;;;;16.83;11.27;;;19.00;99.90;;;19.54;91.86;101845.91;5012850;28;20042;-76
2023/09/27 02:12:59;;;;;;;13.43;10.73;;;19.00;99.90;;;19.57;91.43;101852.97;5007782;28;20050;-76
2023/09/27 02:15:28;;;;;;;16.00;11.48;;;19.10;99.90;;;19.53;91.37;101845.97;5003616;28;20042;-76
2023/09/27 02:17:56;;;;;;;18.75;11.25;;;19.00;99.90;;;19.49;91.28;101845.13;4997889;28;20523;-76
2023/09/27 02:20:26;;;;;;;10.55;8.75;;;19.00;99.90;;;19.33;90.31;101840.19;5009723;28;20038;-76
2023/09/27 02:22:55;;;;;;;13.10;9.68;;;18.90;99.90;;;19.20;90.92;101833.34;5000555;28;20149;-75
2023/09/27 02:25:25;;;;;;;14.03;9.80;;;18.70;99.90;;;19.19;91.40;101820.84;5002866;28;20136;-75
2023/09/27 02:27:55;;;;;;;13.90;11.73;;;18.60;99.90;;;19.19;92.39;101820.84;5008804;28;20553;-76
2023/09/27 02:30:23;;;;;;;16.55;10.55;;;18.60;99.90;;;19.11;91.21;101822.81;4997423;28;20046;-75
2023/09/27 02:32:52;;;;;;;16.23;11.40;;;18.60;99.90;;;19.04;91.33;101827.47;5021145;28;20046;-76
2023/09/27 02:35:21;;;;;;;15.27;11.07;;;18.50;99.90;;;19.11;92.32;101836.22;5005193;28;20050;-76
2023/09/27 02:37:50;;;;;;;13.85;11.02;;;18.60;99.90;;;19.14;93.06;101838.84;4997153;28;20468;-76
2023/09/27 02:40:18;;;;;;;15.45;12.68;;;18.60;99.90;;;19.17;92.97;101836.06;4995737;28;20365;-76
2023/09/27 02:42:48;;;;;;;21.73;15.00;;;18.60;99.90;;;19.11;93.70;101838.91;5012353;28;20487;-76
2023/09/27 02:45:18;;;;;;;20.10;14.37;;;18.60;99.90;;;19.08;94.29;101844.34;5000555;28;20057;-75
2023/09/27 02:47:47;;;;;;;24.38;12.10;;;18.60;99.90;;;19.07;94.38;101845.25;5009053;28;20057;-75
2023/09/27 02:50:16;;;;;;;12.70;11.32;;;18.50;99.90;;;19.09;93.98;101851.47;4998004;28;20061;-77
2023/09/27 02:52:44;;;;;;;9.27;8.38;;;18.60;99.90;;;19.11;93.79;101855.91;5004002;28;20042;-76
2023/09/27 02:55:13;;;;;;;9.70;8.80;;;18.60;99.90;;;19.15;93.49;101859.38;5021203;28;20507;-76
2023/09/27 02:57:48;;;;;;;9.00;8.20;;;18.60;99.90;;;19.09;93.14;101860.41;4996845;28;20054;-75
2023/09/27 03:00:19;;;;;;;8.73;7.93;;;18.60;99.90;;;19.07;92.89;101866.72;5006910;28;20281;-76
2023/09/27 03:02:48;;;;;;;11.60;10.20;;;18.50;99.90;;;19.00;92.90;101866.00;5018548;28;20558;-75
2023/09/27 03:05:17;;;;;;;12.02;10.65;;;18.50;99.90;;;18.98;92.68;101869.63;5013485;28;20046;-76
2023/09/27 03:07:46;;;;;;;13.20;10.20;;;18.50;99.90;;;18.99;92.34;101872.25;5009419;28;20136;-76
2023/09/27 03:10:15;;;;;;;14.73;11.05;;;18.50;99.90;;;18.91;92.49;101864.41;5015302;28;20096;-76
2023/09/27 03:12:47;;;;;;;14.27;12.30;;;18.40;99.90;;;19.07;93.41;101870.28;5017055;28;20484;-75
2023/09/27 03:15:17;;;;;;;15.77;13.40;;;18.50;99.90;;;19.13;93.17;101872.84;5023958;28;20050;-76
2023/09/27 03:17:47;;;;;;;13.90;12.27;;;18.60;99.90;;;19.13;92.71;101880.00;5008775;28;20060;-76
2023/09/27 03:20:18;;;;;;;16.50;13.68;;;18.60;99.90;;;19.16;92.54;101878.16;5001300;28;20096;-76
2023/09/27 03:22:47;;;;;;;18.30;15.13;;;18.60;99.90;;;19.17;92.17;101871.84;5015047;28;20054;-76
2023/09/27 03:25:17;;;;;;;20.35;14.60;;;18.70;99.90;;;19.21;92.41;101864.59;5024456;28;20492;-76
2023/09/27 03:27:46;;;;;;;16.65;14.23;;;18.70;99.90;;;19.25;92.35;101874.34;5013309;28;20053;-75
2023/09/27 03:30:19;;;;;;;12.00;8.18;;;18.80;99.90;;;19.08;90.39;101865.81;5003234;28;20078;-76
2023/09/27 03:32:47;;;;;;;9.15;7.78;;;18.70;99.90;;;18.83;89.80;101866.38;5006989;28;20042;-76
2023/09/27 03:35:16;;;;;;;7.63;6.93;;;18.40;99.90;;;18.77;89.76;101862.97;4995074;28;20138;-75
2023/09/27 03:37:46;;;;;;;9.40;8.00;;;18.30;99.90;;;18.80;90.17;101874.50;5021539;28;20161;-76
2023/09/27 03:40:15;;;;;;;9.13;7.23;;;18.30;99.90;;;18.76;90.79;101882.63;5018509;28;20077;-76
2023/09/27 03:42:46;;;;;;;7.55;6.55;;;18.20;99.90;;;18.60;90.96;101847.22;5012331;28;20073;-76
2023/09/27 03:45:15;;;;;;;9.43;8.02;;;18.10;99.90;;;18.76;91.33;101853.13;5008415;28;20112;-76
2023/09/27 03:47:48;;;;;;;8.23;7.43;;;18.20;99.90;;;18.69;91.86;101852.41;4999589;28;20073;-76
2023/09/27 03:50:20;;;;;;;8.27;7.57;;;18.20;99.90;;;18.69;92.21;101840.78;5014855;28;20062;-76
2023/09/27 03:52:48;;;;;;;14.77;11.48;;;18.10;99.90;;;18.59;92.67;101853.50;5007410;28;20515;-77
2023/09/27 03:55:17;;;;;;;6.75;6.13;;;18.10;99.90;;;18.40;92.23;101857.47;4996738;28;20054;-75
2023/09/27 03:57:45;;;;;;;19.52;8.05;;;17.90;99.90;;;18.28;93.27;101844.31;5003229;28;20057;-76
2023/09/27 04:00:17;;;;;;;8.10;7.40;;;17.70;99.90;;;18.27;94.17;101847.94;5005091;28;20038;-76
2023/09/27 04:02:49;;;;;;;8.35;7.65;;;17.70;99.90;;;18.38;94.52;101850.38;4995263;28;20157;-75
2023/09/27 04:05:22;;;;;;;8.40;7.60;;;17.80;99.90;;;18.40;94.72;101854.78;5021129;28;20141;-75
2023/09/27 04:07:51;;;;;;;8.52;7.63;;;17.90;99.90;;;18.40;95.44;101838.72;5002679;28;20117;-76
2023/09/27 04:10:20;;;;;;;11.98;10.40;;;17.80;99.90;;;18.40;96.23;101835.16;5012339;28;20046;-76
2023/09/27 04:12:48;;;;;;;12.43;11.23;;;17.80;99.90;;;18.48;96.35;101846.63;5008255;28;20056;-75
2023/09/27 04:15:17;;;;;;;10.55;9.65;;;17.90;99.90;;;18.53;96.54;101845.59;4999742;28;20479;-76
2023/09/27 04:17:45;;;;;;;9.77;8.98;;;18.00;99.90;;;18.53;96.70;101834.88;5004919;28;20077;-76
2023/09/27 04:20:17;;;;;;;10.05;9.15;;;18.00;99.90;;;18.55;96.87;101845.56;5010950;28;20088;-76
2023/09/27 04:22:48;;;;;;;10.50;9.45;;;18.00;99.90;;;18.55;96.78;101849.13;5000189;28;20072;-75
2023/09/27 04:25:17;;;;;;;;;;;18.00;99.90;;;18.52;97.10;101837.59;5007669;28;20073;-75
2023/09/27 04:27:49;;;;;;;11.93;10.82;;;18.00;99.90;;;18.49;97.81;101835.84;5008036;28;19983;-76
2023/09/27 04:30:19;;;;;;;10.88;9.88;;;18.00;99.90;;;18.53;98.15;101834.00;4999120;28;20408;-76
2023/09/27 04:32:51;;;;;;;12.65;11.45;;;18.00;99.90;;;18.48;97.96;101834.13;5010978;28;20043;-76
2023/09/27 04:35:22;;;;;;;12.93;11.73;;;18.00;99.90;;;18.55;98.06;101833.06;5005243;28;20045;-76
2023/09/27 04:37:51;;;;;;;12.18;11.07;;;18.00;99.90;;;18.58;97.97;101842.84;5001349;28;20586;-75
2023/09/27 04:40:19;;;;;;;11.57;10.38;;;18.00;99.90;;;18.62;97.27;101834.66;5011529;28;20404;-76
2023/09/27 04:42:48;;;;;;;9.93;9.13;;;18.10;99.90;;;18.65;97.69;101828.38;5001726;28;20065;-76
2023/09/27 04:45:17;;;;;;;9.10;8.38;;;18.10;99.90;;;18.66;98.00;101827.47;5004753;28;20061;-76
2023/09/27 04:47:45;;;;;;;9.73;8.80;;;18.10;99.90;;;18.67;98.06;101802.41;5010397;28;20048;-76
2023/09/27 04:50:15;;;;;;;9.25;8.55;;;18.10;99.90;;;18.66;97.84;101812.25;4999051;28;20059;-76
2023/09/27 04:52:45;;;;;;;13.13;11.73;;;18.10;99.90;;;18.59;97.84;101812.41;5008563;28;20046;-76
2023/09/27 04:55:14;;;;;;;18.43;14.37;;;18.10;99.90;;;18.66;98.47;101816.75;5006972;28;20360;-76
2023/09/27 04:57:43;;;;;;;14.35;12.98;;;18.10;99.90;;;18.72;98.56;101819.25;5000276;28;20050;-75
2023/09/27 05:00:15;;;;;;;13.90;12.50;;;18.20;99.90;;;18.72;98.93;101798.72;5011216;28;20046;-76
2023/09/27 05:02:43;;;;;;;12.80;11.05;;;18.20;99.90;;;18.69;97.22;101811.31;5003078;28;20046;-76
2023/09/27 05:05:12;;;;;;;15.77;14.15;;;18.10;99.90;;;18.69;95.99;101811.31;5003002;28;20053;-77
2023/09/27 05:07:40;;;;;;;18.92;15.85;;;18.20;99.90;;;18.74;96.74;101815.66;5010374;28;20041;-76
2023/09/27 05:10:11;;;;;;;20.60;17.00;;;18.20;99.90;;;18.74;96.62;101818.31;4998962;28;20061;-75
2023/09/27 05:12:39;;;;;;;20.70;17.25;;;18.30;99.90;;;18.64;96.12;101815.91;5005840;28;20050;-76
2023/09/27 05:15:09;;;;;;;13.45;11.70;;;18.10;99.90;;;18.37;95.60;101811.97;5007384;28;20121;-77
2023/09/27 05:17:38;;;;;;;15.53;13.93;;;17.90;99.90;;;18.24;93.81;101813.16;4998138;28;20050;-76
2023/09/27 05:20:10;;;;;;;16.13;14.43;;;17.80;99.90;;;18.27;94.50;101810.41;5009085;28;20038;-77
2023/09/27 05:22:41;;;;;;;16.60;14.80;;;17.70;99.90;;;18.32;94.45;101807.63;5004820;28;20038;-76
2023/09/27 05:25:11;;;;;;;26.65;19.10;;;17.80;99.90;;;18.28;96.79;101774.66;4999086;28;20058;-74
2023/09/27 05:27:40;;;;;;;20.33;14.85;;;17.80;99.90;;;18.16;96.56;101791.00;5010434;28;20115;-77
2023/09/27 05:30:11;;;;;;;16.63;13.15;;;17.60;99.90;;;17.88;94.89;101793.38;5001139;28;20427;-76
2023/09/27 05:32:40;;;;;;;18.83;16.88;;;17.40;99.90;;;17.99;97.87;101798.50;5003290;28;20469;-77
2023/09/27 05:35:09;;;;;;;20.27;16.48;;;17.40;99.90;;;18.02;97.63;101801.13;5009680;28;20077;-77
2023/09/27 05:37:38;;;;;;;20.70;14.85;;;17.50;99.90;;;17.98;95.85;101811.00;4998295;28;20044;-77
2023/09/27 05:40:10;;;;;;;19.95;15.15;;;17.50;99.90;;;17.90;96.00;101796.00;5006636;28;20046;-77
2023/09/27 05:42:39;;;;;;;14.43;13.00;;;17.40;99.90;;;18.06;97.82;101809.97;5006477;28;20132;-77
2023/09/27 05:45:10;;;;;;;13.52;11.70;;;17.50;99.90;;;18.08;97.04;101813.50;4998245;28;20066;-77
2023/09/27 05:47:39;;;;;;;18.77;13.48;;;17.60;99.90;;;18.03;96.04;101810.91;5009245;28;20050;-77
2023/09/27 05:50:09;;;;;;;18.00;13.88;;;17.50;99.90;;;18.13;96.05;101808.94;5003095;28;20054;-76
2023/09/27 05:52:37;;;;;;;23.02;17.75;;;17.60;99.90;;;18.21;98.52;101806.97;5001113;28;20101;-76
2023/09/27 05:55:07;;;;;;;29.70;20.60;;;17.70;99.90;;;18.27;99.83;101813.09;5010306;28;20135;-76
2023/09/27 05:57:37;;;;;;;31.60;22.52;;;17.80;99.90;;;18.19;100.00;101812.38;4999249;28;20046;-76
2023/09/27 06:00:21;;;;;;;33.07;22.33;;;17.70;99.90;;;18.30;100.00;101810.34;5003156;28;20050;-77
2023/09/27 06:02:49;;;;;;;29.92;20.92;;;17.80;99.90;;;18.45;100.00;101826.13;5010233;28;20050;-76
2023/09/27 06:05:18;;;;;;;26.83;20.48;;;17.90;99.90;;;18.51;100.00;101800.97;4997767;28;20129;-75
2023/09/27 06:07:46;;;;;;;32.85;22.25;;;18.00;99.90;;;18.59;100.00;101810.63;5013523;28;20056;-76
2023/09/27 06:10:15;;;;;;;32.20;21.80;;;18.10;99.90;;;18.60;100.00;101808.84;5000989;28;20432;-76
2023/09/27 06:12:45;;;;;;;30.10;21.15;;;18.10;99.90;;;18.56;100.00;101813.38;5024601;28;20065;-74
2023/09/27 06:15:14;;;;;;;33.45;21.83;;;18.10;99.90;;;18.00;100.00;101709.25;4997541;28;21001;-76
2023/09/27 06:17:44;;;;;;;31.77;21.73;;;18.00;99.90;;;18.53;100.00;101804.50;5004385;28;20785;-75
2023/09/27 06:20:19;;;;;;;31.92;21.55;;;18.10;99.90;;;18.37;100.00;101795.03;5006652;28;20054;-75
2023/09/27 06:22:52;;;;;;;28.70;23.05;;;18.00;99.90;;;18.04;100.00;101743.94;4997132;28;20062;-76
2023/09/27 06:25:28;;;;;;;35.78;25.95;;;17.80;99.90;;;18.17;100.00;101755.28;5022123;28;20136;-75
2023/09/27 06:28:00;;;;;;;38.90;28.70;;;17.70;99.90;;;18.00;100.00;101768.13;5005573;28;20049;-75
2023/09/27 06:30:29;;;;;;;40.15;30.27;;;17.60;99.90;;;17.83;100.00;101760.44;5011971;28;20515;-75
2023/09/27 06:32:58;;;;;;;41.17;27.90;;;17.40;99.90;;;17.75;100.00;101758.84;5009198;28;20053;-76
2023/09/27 06:35:26;;;;;;;38.85;28.70;;;17.40;99.90;;;17.75;100.00;101773.09;5001738;28;20050;-76
2023/09/27 06:37:55;;;;;;;45.58;29.40;;;17.30;99.90;;;18.05;100.00;101795.69;4999938;28;20046;-76
2023/09/27 06:40:24;;;;;;;40.33;28.25;;;17.50;99.90;;;18.28;100.00;101817.53;5009411;28;20064;-76
2023/09/27 06:42:53;;;;;;;34.25;28.70;;;17.80;99.90;;;18.43;100.00;101824.38;5013601;28;20471;-74
2023/09/27 06:45:23;;;;;;;35.88;26.83;;;18.00;99.90;;;18.57;100.00;101824.97;5004093;28;20113;-84
2023/09/27 06:47:52;;;;;;;39.25;27.30;;;18.10;99.90;;;18.63;100.00;101844.50;5006849;28;20061;-75
2023/09/27 06:50:21;;;;;;;32.20;25.25;;;18.20;99.90;;;18.73;100.00;101854.09;4996301;28;20397;-71
2023/09/27 06:52:50;;;;;;;33.40;26.20;;;18.40;99.90;;;18.78;100.00;101862.91;5007192;28;20053;-72
2023/09/27 06:55:31;;;;;;;37.67;26.42;;;18.40;99.90;;;18.94;100.00;101874.19;5004621;28;20130;-72
2023/09/27 06:57:59;;;;;;;33.70;25.95;;;18.50;99.90;;;19.02;100.00;101860.59;5012524;28;20471;-74
2023/09/27 07:00:29;;;;;;;33.78;24.75;;;18.60;99.90;;;19.16;100.00;101874.56;4996821;28;20110;-73
2023/09/27 07:02:58;;;;;;;34.97;25.53;;;18.70;99.90;;;19.24;100.00;101873.44;5004856;28;20047;-72
2023/09/27 07:05:26;;;;;;;33.67;24.65;;;18.80;99.90;;;19.34;100.00;101875.03;5020480;28;20087;-74
2023/09/27 07:07:55;;;;;;;29.00;22.92;;;18.90;99.90;;;19.37;100.00;101869.63;4996694;28;20096;-72
2023/09/27 07:10:25;;;;;;;33.15;24.10;;;18.90;99.90;;;19.40;100.00;101868.63;5008446;28;20069;-77
2023/09/27 07:12:54;;;;;;;28.67;23.55;;;19.00;99.90;;;19.49;100.00;101874.66;5001167;28;20049;-73
2023/09/27 07:15:23;;;;;;;31.50;24.95;;;19.00;99.90;;;19.50;100.00;101871.06;5014797;28;20042;-71
2023/09/27 07:17:52;;;;;;;28.33;22.42;;;19.00;99.90;;;19.49;100.00;101855.00;5008271;28;20048;-75
2023/09/27 07:20:27;;;;;;;31.67;23.52;;;19.10;99.90;;;19.61;100.00;101862.72;4998080;28;20042;-74
2023/09/27 07:22:56;;;;;;;30.90;23.13;;;19.10;99.90;;;19.70;100.00;101867.88;5002541;28;20046;-70
2023/09/27 07:25:28;;;;;;;38.78;24.00;;;19.20;99.90;;;19.59;100.00;101848.47;5007412;28;20057;-75
2023/09/27 07:27:56;;;;;;;35.50;23.98;;;19.30;99.90;;;19.65;100.00;101864.41;4995583;28;20068;-72
2023/09/27 07:30:25;;;;;;;31.25;23.65;;;19.10;99.90;;;19.76;100.00;101870.41;5021151;28;20046;-73
2023/09/27 07:32:55;;;;;;;29.05;22.02;;;19.30;99.90;;;19.85;100.00;101862.09;5003908;28;20065;-73
2023/09/27 07:35:28;;;;;;;29.83;23.38;;;19.40;99.90;;;19.93;100.00;101872.63;4997203;28;20448;-73
2023/09/27 07:37:58;;;;;;;31.08;23.50;;;19.50;99.90;;;19.97;99.69;101871.63;4996385;28;20073;-75
2023/09/27 07:40:26;;;;;;;35.05;23.50;;;19.50;99.90;;;19.87;99.61;101870.09;5004283;28;20042;-70
2023/09/27 07:42:55;;;;;;;26.77;22.90;;;19.40;99.90;;;19.88;100.00;101864.69;5003855;28;20054;-74
2023/09/27 07:45:25;;;;;;;28.77;24.10;;;19.40;99.90;;;19.90;100.00;101867.34;4996480;28;20488;-75
2023/09/27 07:47:56;;;;;;;32.13;24.55;;;19.40;99.90;;;20.08;100.00;101875.78;5007636;28;20088;-76
2023/09/27 07:50:27;;;;;;;32.75;26.27;;;19.50;99.90;;;20.19;100.00;101871.03;5004179;28;20133;-76
2023/09/27 07:52:56;;;;;;;33.42;25.52;;;19.70;99.90;;;20.38;100.00;101876.78;5002308;28;20514;-70
2023/09/27 07:55:25;;;;;;;29.15;23.83;;;19.80;99.90;;;20.53;99.50;101882.59;5012444;28;20108;-74
2023/09/27 07:57:56;;;;;;;36.80;28.30;;;20.00;99.90;;;20.64;99.13;101877.78;5002619;28;20045;-75
2023/09/27 08:00:28;;;;;;;35.90;25.50;;;20.20;99.90;;;20.25;98.47;101805.47;5005705;28;20122;-76
2023/09/27 08:03:00;;;;;;;37.75;27.85;;;20.20;99.90;;;20.68;98.05;101873.19;5011453;28;20038;-74
2023/09/27 08:05:31;;;;;;;36.70;26.77;;;20.30;99.90;;;20.81;97.48;101873.69;5000016;28;20073;-74
2023/09/27 08:07:59;;;;;;;35.30;26.52;;;20.30;99.90;;;20.83;96.83;101886.16;5007914;28;20488;-73
2023/09/27 08:10:29;;;;;;;33.20;25.90;;;20.30;99.90;;;20.92;96.65;101899.34;5007987;28;20470;-72
2023/09/27 08:12:57;;;;;;;33.13;24.67;;;20.40;99.90;;;20.86;96.25;101904.91;4999584;28;20054;-74
2023/09/27 08:15:26;;;;;;;33.85;26.08;;;20.40;99.90;;;20.87;96.89;101895.91;5010836;28;20574;-73
2023/09/27 08:17:57;;;;;;;31.00;24.10;;;20.40;99.90;;;20.92;96.42;101887.69;5003851;28;20037;-73
2023/09/27 08:20:27;;;;;;;36.53;25.30;;;20.40;99.90;;;20.98;96.15;101877.59;5002739;28;20061;-72
2023/09/27 08:22:56;;;;;;;34.97;25.10;;;20.50;99.90;;;21.03;95.71;101858.69;5010297;28;20042;-73
2023/09/27 08:25:24;;;;;;;33.72;26.88;;;20.50;99.90;;;20.90;96.04;101858.16;5000724;28;20796;-72
2023/09/27 08:27:53;;;;;;;32.72;25.33;;;20.50;99.90;;;21.04;95.91;101861.31;5005705;28;20046;-73
2023/09/27 08:30:21;;;;;;;37.65;27.92;;;20.50;99.90;;;20.89;96.22;101855.50;5009622;28;20077;-70
2023/09/27 08:32:51;;;;;;;33.88;25.42;;;20.50;99.90;;;20.52;96.02;101788.50;4999312;28;20050;-70
2023/09/27 08:35:20;;;;;;;37.38;27.48;;;20.60;99.90;;;20.59;97.43;101871.66;5009443;28;20042;-72
2023/09/27 08:37:50;;;;;;;38.40;28.83;;;20.30;99.90;;;20.20;99.72;101867.44;5005647;28;20121;-71
2023/09/27 08:40:19;;;;;;;42.00;27.77;;;19.80;99.90;;;19.90;100.00;101878.97;5000842;28;20050;-72
2023/09/27 08:42:51;;;;;;;33.70;25.83;;;19.50;99.90;;;20.08;100.00;101874.91;5011945;28;20404;-70
2023/09/27 08:45:23;;;;;;;34.85;26.50;;;19.40;99.90;;;20.31;100.00;101845.59;5002652;28;20467;-70
2023/09/27 08:47:52;;;;;;;38.67;27.40;;;19.70;99.90;;;20.45;100.00;101875.66;5018895;28;20093;-69
2023/09/27 08:50:21;;;;;;;34.80;26.45;;;19.90;99.90;;;20.59;100.00;101881.53;5011130;28;20069;-70
2023/09/27 08:52:52;;;;;;;36.78;27.50;;;20.00;99.90;;;20.42;100.00;101852.44;4999805;28;20042;-71
2023/09/27 08:55:20;;;;;;;;;;;20.10;99.90;;;20.57;100.00;101886.06;5015696;28;20057;-72
2023/09/27 08:57:51;;;;;;;30.83;25.52;;;20.10;99.90;;;20.47;100.00;101884.56;5002529;28;20020;-70
2023/09/27 09:00:25;;;;;;;40.80;26.17;;;20.00;99.90;;;20.15;100.00;101903.38;5010720;28;20041;-71
2023/09/27 09:02:57;;;;;;;34.88;26.65;;;19.80;99.90;;;20.09;100.00;101855.19;5000990;28;20046;-73
2023/09/27 09:05:30;;;;;;;36.42;26.42;;;19.60;99.90;;;20.42;100.00;101871.25;5004454;28;20068;-72
2023/09/27 09:08:04;;;;;;;37.28;27.08;;;19.90;99.90;;;20.56;100.00;101863.66;5010090;28;20050;-70
2023/09/27 09:10:33;;;;;;;37.88;27.10;;;20.10;99.90;;;20.36;100.00;101879.47;4998694;28;20164;-70
2023/09/27 09:13:03;;;;;;;35.42;27.58;;;20.00;99.90;;;20.17;100.00;101870.16;5006713;28;20050;-69
2023/09/27 09:15:40;;;;;;;41.65;28.13;;;19.70;99.90;;;20.10;100.00;101857.81;5007059;28;20046;-71
2023/09/27 09:18:14;;;;;;;35.90;27.95;;;19.70;99.90;;;20.15;100.00;101844.25;4998185;28;20058;-69
2023/09/27 09:20:54;;;;;;;35.58;27.83;;;19.60;99.90;;;20.47;100.00;101850.50;5022793;28;20412;-71
2023/09/27 09:23:33;;;;;;;34.63;26.42;;;19.90;99.90;;;20.61;100.00;101868.91;5006150;28;20130;-72
2023/09/27 09:26:09;;;;;;;39.97;29.15;;;20.10;99.90;;;20.73;100.00;101867.66;4998015;28;20046;-73
2023/09/27 09:28:56;;;;;;;41.92;29.70;;;20.20;99.90;;;20.78;100.00;101866.59;5007712;28;20084;-71
2023/09/27 09:31:26;;;;;;;42.97;30.27;;;20.30;99.90;;;20.56;100.00;101855.59;5007407;28;20451;-69
2023/09/27 09:34:04;;;;;;;40.63;30.13;;;20.30;99.90;;;20.64;100.00;101861.63;4997095;28;20050;-69
2023/09/27 09:36:33;;;;;;;33.90;27.55;;;20.30;99.90;;;20.87;100.00;101851.97;5008035;28;20046;-70
2023/09/27 09:39:12;;;;;;;39.45;29.13;;;20.40;99.90;;;20.94;100.00;101865.22;5005069;28;20042;-68
2023/09/27 09:41:47;;;;;;;34.73;27.93;;;20.50;99.90;;;21.06;100.00;101861.28;4998278;28;20046;-67
2023/09/27 09:44:18;;;;;;;41.67;28.17;;;20.60;99.90;;;20.86;100.00;101852.91;5008938;28;20054;-69
2023/09/27 09:46:47;;;;;;;38.08;27.35;;;20.60;99.90;;;20.90;100.00;101844.72;5019586;28;20085;-68
2023/09/27 09:49:17;;;;;;;44.40;27.67;;;20.50;99.90;;;20.61;100.00;101850.94;4999955;28;20051;-69
2023/09/27 09:51:49;;;;;;;37.58;27.55;;;20.30;99.90;;;19.96;100.00;101835.81;5025803;28;20052;-69
2023/09/27 09:54:37;;;;;;;42.08;29.30;;;19.70;99.90;;;19.41;100.00;101816.75;5001163;28;20046;-69
2023/09/27 09:57:06;;;;;;;42.88;29.65;;;19.10;99.90;;;19.31;100.00;101782.97;5000145;28;20129;-67
2023/09/27 10:00:12;;;;;;;47.65;31.48;;;18.90;99.90;;;18.95;100.00;101747.22;5025527;28;20540;-67
2023/09/27 10:02:49;;;;;;;43.85;32.50;;;18.60;99.90;;;18.49;100.00;101699.19;5004928;28;20504;-68
2023/09/27 10:05:19;;;;;;;46.65;32.65;;;18.40;99.90;;;18.99;100.00;101756.09;4997593;28;20408;-68
2023/09/27 10:07:49;;;;;;;51.60;32.95;;;18.50;99.90;;;19.30;100.00;101770.50;5009206;28;20050;-68
2023/09/27 10:10:20;;;;;;;47.03;32.60;;;18.80;99.90;;;19.44;100.00;101773.72;5002611;28;20136;-70
2023/09/27 10:12:51;;;;;;;44.22;31.40;;;19.00;99.90;;;19.70;100.00;101780.13;4999749;28;20042;-70